Time;durP1;ratioP1;P1;durP2;ratioP2;P2;SDS_P1;SDS_P2;PMS_P1;PMS_P2;Temp;Humidity;BMP_temperature;BMP_pressure;BME280_temperature;BME280_humidity;BME280_pressure;Samples;Min_cycle;Max_cycle;Signal;HPM_P1;HPM_P2
2023/07/31 00:00:39;;;;;;;7.07;2.40;;;16.50;99.90;;;;;;4231277;28;20100;-80
2023/07/31 00:02:39;;;;;;;3.08;2.35;;;16.50;99.90;;;;;;4232831;28;20050;-80
2023/07/31 00:04:40;;;;;;;8.45;3.88;;;16.50;99.90;;;;;;4232862;28;20040;-80
2023/07/31 00:06:41;;;;;;;6.15;2.83;;;16.50;99.90;;;;;;4231646;28;20036;-80
2023/07/31 00:08:41;;;;;;;5.95;2.80;;;16.50;99.90;;;;;;4232798;28;20046;-80
2023/07/31 00:10:42;;;;;;;3.33;2.40;;;16.50;99.90;;;;;;4232542;28;20566;-80
2023/07/31 00:12:44;;;;;;;4.28;2.42;;;16.50;99.90;;;;;;4231333;28;20444;-80
2023/07/31 00:14:45;;;;;;;6.70;2.75;;;16.50;99.90;;;;;;4214396;28;20518;-80
2023/07/31 00:16:47;;;;;;;6.03;2.63;;;16.50;99.90;;;;;;4232556;28;20051;-80
2023/07/31 00:18:48;;;;;;;5.97;3.22;;;16.40;99.90;;;;;;4231525;28;20046;-80
2023/07/31 00:20:48;;;;;;;4.25;2.67;;;16.40;99.90;;;;;;4230459;28;20047;-80
2023/07/31 00:22:49;;;;;;;4.25;2.60;;;16.40;99.90;;;;;;4232469;28;20039;-80
2023/07/31 00:24:50;;;;;;;6.13;2.85;;;16.40;99.90;;;;;;4232559;28;20796;-80
2023/07/31 00:26:50;;;;;;;4.10;2.40;;;16.40;99.90;;;;;;4232433;28;20043;-80
2023/07/31 00:28:51;;;;;;;4.93;3.00;;;16.40;99.90;;;;;;4231774;28;20043;-79
2023/07/31 00:30:52;;;;;;;3.33;2.35;;;16.40;99.90;;;;;;4232192;28;20139;-79
2023/07/31 00:32:53;;;;;;;5.40;2.45;;;16.30;99.90;;;;;;4232369;28;20089;-79
2023/07/31 00:34:53;;;;;;;4.15;2.40;;;16.20;99.90;;;;;;4232613;28;20043;-79
2023/07/31 00:36:54;;;;;;;2.67;1.90;;;16.20;99.90;;;;;;4230621;28;20083;-79
2023/07/31 00:38:55;;;;;;;2.92;1.77;;;16.20;99.90;;;;;;4231112;28;20529;-79
2023/07/31 00:40:55;;;;;;;3.00;1.83;;;16.10;99.90;;;;;;4231919;28;20043;-78
2023/07/31 00:42:56;;;;;;;4.05;1.90;;;16.10;99.90;;;;;;4232081;28;20487;-79
2023/07/31 00:44:57;;;;;;;6.10;1.90;;;16.10;99.90;;;;;;4231918;28;20133;-78
2023/07/31 00:46:59;;;;;;;3.17;1.90;;;16.10;99.90;;;;;;4230743;28;20120;-78
2023/07/31 00:49:00;;;;;;;2.78;1.95;;;16.10;99.90;;;;;;4231579;28;20055;-78
2023/07/31 00:51:01;;;;;;;13.88;2.50;;;16.10;99.90;;;;;;4231768;28;20423;-79
2023/07/31 00:53:02;;;;;;;6.45;1.63;;;16.20;99.90;;;;;;4232521;28;20036;-79
2023/07/31 00:55:03;;;;;;;3.50;1.65;;;16.10;99.90;;;;;;4234261;28;20489;-79
2023/07/31 00:57:04;;;;;;;3.13;1.55;;;16.10;99.90;;;;;;4231498;28;20051;-78
2023/07/31 00:59:05;;;;;;;5.28;1.88;;;16.10;99.90;;;;;;4232268;28;20073;-79
2023/07/31 01:01:06;;;;;;;3.45;2.03;;;16.10;99.90;;;;;;4231889;28;20818;-79
2023/07/31 01:03:07;;;;;;;2.78;1.65;;;16.10;99.90;;;;;;4231709;28;20392;-79
2023/07/31 01:05:07;;;;;;;2.72;1.90;;;16.10;99.90;;;;;;4231704;28;20507;-80
2023/07/31 01:07:19;;;;;;;3.50;1.65;;;16.10;99.90;;;;;;4231994;28;20487;-79
2023/07/31 01:09:35;;;;;;;2.83;1.85;;;16.00;99.90;;;;;;4232338;28;20452;-79
2023/07/31 01:11:45;;;;;;;3.00;1.88;;;16.00;99.90;;;;;;4231127;28;20071;-79
2023/07/31 01:13:46;;;;;;;1.98;1.60;;;15.90;99.90;;;;;;4232052;28;20596;-79
2023/07/31 01:15:47;;;;;;;2.88;1.70;;;15.90;99.90;;;;;;4231470;28;20141;-79
2023/07/31 01:17:48;;;;;;;2.08;1.60;;;15.90;99.90;;;;;;4230789;28;20093;-79
2023/07/31 01:19:49;;;;;;;3.13;1.85;;;15.90;99.90;;;;;;4231309;28;20047;-79
2023/07/31 01:22:22;;;;;;;4.78;1.70;;;15.80;99.90;;;;;;4231091;28;20039;-79
2023/07/31 01:24:32;;;;;;;3.03;1.73;;;15.90;99.90;;;;;;4213691;28;20218;-79
2023/07/31 01:26:36;;;;;;;1.58;1.35;;;15.80;99.90;;;;;;4231136;28;20112;-79
2023/07/31 01:28:56;;;;;;;3.13;1.42;;;15.80;99.90;;;;;;4231749;28;20051;-79
2023/07/31 01:31:00;;;;;;;2.58;1.38;;;15.80;99.90;;;;;;4230920;28;20040;-79
2023/07/31 01:33:06;;;;;;;2.97;1.30;;;15.80;99.90;;;;;;4231567;28;20049;-79
2023/07/31 01:35:08;;;;;;;2.58;1.30;;;15.80;99.90;;;;;;4230217;28;20136;-78
2023/07/31 01:37:08;;;;;;;4.70;1.17;;;15.80;99.90;;;;;;4231325;28;20118;-79
2023/07/31 01:39:09;;;;;;;1.73;1.20;;;15.80;99.90;;;;;;4231269;28;20039;-79
2023/07/31 01:41:10;;;;;;;2.50;1.63;;;15.90;99.90;;;;;;4230924;28;20503;-79
2023/07/31 01:43:10;;;;;;;2.08;1.60;;;15.80;99.90;;;;;;4231410;28;20070;-79
2023/07/31 01:45:11;;;;;;;2.40;1.67;;;15.90;99.90;;;;;;4231442;28;20035;-79
2023/07/31 01:47:12;;;;;;;2.78;1.75;;;15.90;99.90;;;;;;4229884;28;20051;-79
2023/07/31 01:49:13;;;;;;;2.58;1.70;;;15.80;99.90;;;;;;4230822;28;20047;-79
2023/07/31 01:51:13;;;;;;;2.90;1.58;;;15.80;99.90;;;;;;4231045;28;20118;-79
2023/07/31 01:53:14;;;;;;;3.47;2.22;;;15.90;99.90;;;;;;4231261;28;20114;-79
2023/07/31 01:55:15;;;;;;;6.38;1.90;;;15.80;99.90;;;;;;4231150;28;20047;-79
2023/07/31 01:57:16;;;;;;;2.17;1.70;;;15.80;99.90;;;;;;4231006;28;20043;-79
2023/07/31 01:59:16;;;;;;;3.78;1.88;;;15.80;99.90;;;;;;4231066;28;20100;-79
2023/07/31 02:01:17;;;;;;;4.28;1.63;;;15.80;99.90;;;;;;4229585;28;20040;-79
2023/07/31 02:03:18;;;;;;;3.15;1.80;;;15.80;99.90;;;;;;4230998;28;20047;-79
2023/07/31 02:05:19;;;;;;;4.50;1.92;;;15.80;99.90;;;;;;4230364;28;20039;-79
2023/07/31 02:07:20;;;;;;;3.30;2.17;;;15.80;99.90;;;;;;4231060;28;20730;-79
2023/07/31 02:09:20;;;;;;;2.63;1.75;;;15.80;99.90;;;;;;4231160;28;20061;-79
2023/07/31 02:11:21;;;;;;;1.92;1.60;;;15.80;99.90;;;;;;4230596;28;20032;-79
2023/07/31 02:13:22;;;;;;;2.90;1.73;;;15.80;99.90;;;;;;4230953;28;20509;-79
2023/07/31 02:15:22;;;;;;;3.00;1.50;;;15.80;99.90;;;;;;4231099;28;20141;-79
2023/07/31 02:17:23;;;;;;;3.50;1.48;;;15.80;99.90;;;;;;4230688;28;20051;-79
2023/07/31 02:19:24;;;;;;;3.15;2.03;;;15.80;99.90;;;;;;4231197;28;20043;-79
2023/07/31 02:21:24;;;;;;;2.40;1.40;;;15.80;99.90;;;;;;4230804;28;20039;-79
2023/07/31 02:23:25;;;;;;;2.28;1.42;;;15.80;99.90;;;;;;4230913;28;20075;-79
2023/07/31 02:25:25;;;;;;;3.15;1.33;;;15.80;99.90;;;;;;4229202;28;20046;-79
2023/07/31 02:27:27;;;;;;;2.00;1.27;;;15.80;99.90;;;;;;4230812;28;20092;-79
2023/07/31 02:29:28;;;;;;;2.25;1.33;;;15.80;99.90;;;;;;4230818;28;20115;-79
2023/07/31 02:31:28;;;;;;;6.60;1.30;;;15.80;99.90;;;;;;4230619;28;20129;-79
2023/07/31 02:33:29;;;;;;;3.28;1.50;;;15.80;99.90;;;;;;4228988;28;20058;-79
2023/07/31 02:35:30;;;;;;;2.15;1.33;;;15.80;99.90;;;;;;4230784;28;20507;-79
2023/07/31 02:37:30;;;;;;;2.50;1.48;;;15.70;99.90;;;;;;4231085;28;20128;-79
2023/07/31 02:39:31;;;;;;;2.70;1.27;;;15.80;99.90;;;;;;4230560;28;20032;-79
2023/07/31 02:41:32;;;;;;;2.15;1.58;;;15.70;99.90;;;;;;4230629;28;20044;-79
2023/07/31 02:43:32;;;;;;;5.05;1.52;;;15.70;99.90;;;;;;4234124;28;20052;-79
2023/07/31 02:45:33;;;;;;;2.25;1.02;;;15.70;99.90;;;;;;4233554;28;20043;-79
2023/07/31 02:47:34;;;;;;;1.10;1.00;;;15.70;99.90;;;;;;4234192;28;20046;-79
2023/07/31 02:49:34;;;;;;;1.48;1.08;;;15.70;99.90;;;;;;4234206;28;20100;-79
2023/07/31 02:51:35;;;;;;;1.58;1.10;;;15.70;99.90;;;;;;4234133;28;20110;-79
2023/07/31 02:53:36;;;;;;;1.67;1.20;;;15.70;99.90;;;;;;4233998;28;20097;-79
2023/07/31 02:55:36;;;;;;;1.38;1.00;;;15.80;99.90;;;;;;4234193;28;20070;-79
2023/07/31 02:57:37;;;;;;;3.22;1.27;;;15.80;99.90;;;;;;4232783;28;20403;-79
2023/07/31 02:59:38;;;;;;;2.45;1.00;;;15.70;99.90;;;;;;4232445;28;20427;-79
2023/07/31 03:01:38;;;;;;;1.70;1.15;;;15.80;99.90;;;;;;4233739;28;20044;-79
2023/07/31 03:03:41;;;;;;;1.35;1.10;;;15.70;99.90;;;;;;4233658;28;20101;-79
2023/07/31 03:05:41;;;;;;;2.42;1.10;;;15.70;99.90;;;;;;4233663;28;20090;-79
2023/07/31 03:07:42;;;;;;;4.22;1.08;;;15.80;99.90;;;;;;4233212;28;20043;-79
2023/07/31 03:09:43;;;;;;;4.78;1.00;;;15.70;99.90;;;;;;4233799;28;20443;-79
2023/07/31 03:11:43;;;;;;;2.20;1.55;;;15.70;99.90;;;;;;4233824;28;20039;-79
2023/07/31 03:13:44;;;;;;;1.75;1.05;;;15.80;99.90;;;;;;4233871;28;20039;-79
2023/07/31 03:15:45;;;;;;;2.28;0.75;;;15.70;99.90;;;;;;4231953;28;20470;-79
2023/07/31 03:17:45;;;;;;;2.95;1.05;;;15.70;99.90;;;;;;4233869;28;20047;-79
2023/07/31 03:19:46;;;;;;;3.67;1.25;;;15.70;99.90;;;;;;4233392;28;20092;-79
2023/07/31 03:21:47;;;;;;;2.53;0.88;;;15.70;99.90;;;;;;4233672;28;20484;-79
2023/07/31 03:23:47;;;;;;;2.35;1.10;;;15.80;99.90;;;;;;4234009;28;20039;-79
2023/07/31 03:25:59;;;;;;;1.55;0.90;;;15.70;99.90;;;;;;4233607;28;20092;-79
2023/07/31 03:27:59;;;;;;;1.90;1.20;;;15.70;99.90;;;;;;4233455;28;20051;-79
2023/07/31 03:30:00;;;;;;;1.70;0.90;;;15.70;99.90;;;;;;4232296;28;20533;-79
2023/07/31 03:32:01;;;;;;;1.98;0.88;;;15.70;99.90;;;;;;4231303;28;20406;-79
2023/07/31 03:34:02;;;;;;;1.75;1.08;;;15.70;99.90;;;;;;4233502;28;20088;-79
2023/07/31 03:36:03;;;;;;;3.83;1.75;;;16.50;99.90;;;;;;4233000;28;20119;-79
2023/07/31 03:38:04;;;;;;;1.98;1.00;;;15.70;99.90;;;;;;4233812;28;20040;-79
2023/07/31 03:40:05;;;;;;;1.08;0.80;;;15.70;99.90;;;;;;4233520;28;20036;-79
2023/07/31 03:42:06;;;;;;;1.05;0.80;;;15.70;99.90;;;;;;4233208;28;20479;-79
2023/07/31 03:44:07;;;;;;;2.80;0.75;;;15.70;99.90;;;;;;4233059;28;20123;-79
2023/07/31 03:46:08;;;;;;;4.50;0.90;;;15.70;99.90;;;;;;4232867;28;20039;-79
2023/07/31 03:48:08;;;;;;;1.95;0.82;;;15.70;99.90;;;;;;4233023;28;20403;-79
2023/07/31 03:50:09;;;;;;;0.73;0.57;;;15.60;99.90;;;;;;4233299;28;20503;-79
2023/07/31 03:52:10;;;;;;;3.30;0.77;;;15.60;99.90;;;;;;4231759;28;20055;-79
2023/07/31 03:54:11;;;;;;;2.33;0.90;;;15.60;99.90;;;;;;4232726;28;20043;-79
2023/07/31 03:56:11;;;;;;;2.47;0.82;;;15.60;99.90;;;;;;4232438;28;20319;-79
2023/07/31 03:58:12;;;;;;;1.23;0.70;;;15.60;99.90;;;;;;4232777;28;20043;-79
2023/07/31 04:00:13;;;;;;;2.05;0.80;;;15.60;99.90;;;;;;4233276;28;20527;-79
2023/07/31 04:02:14;;;;;;;1.63;0.77;;;15.60;99.90;;;;;;4231293;28;20159;-79
2023/07/31 04:04:14;;;;;;;3.03;0.60;;;15.60;99.90;;;;;;4233088;28;20526;-79
2023/07/31 04:06:17;;;;;;;2.67;0.80;;;15.60;99.90;;;;;;4232634;28;20510;-79
2023/07/31 04:08:18;;;;;;;1.42;0.70;;;15.60;99.90;;;;;;4232289;28;20044;-79
2023/07/31 04:10:19;;;;;;;1.88;0.60;;;15.70;99.90;;;;;;4232955;28;20032;-79
2023/07/31 04:12:19;;;;;;;2.03;0.63;;;15.60;99.90;;;;;;4232235;28;20036;-79
2023/07/31 04:14:20;;;;;;;2.45;0.63;;;15.60;99.90;;;;;;4232430;28;20517;-79
2023/07/31 04:16:21;;;;;;;1.15;0.55;;;15.60;99.90;;;;;;4231060;28;20539;-79
2023/07/31 04:18:24;;;;;;;2.85;0.60;;;15.60;99.90;;;;;;4232168;28;20096;-79
2023/07/31 04:20:25;;;;;;;4.18;1.02;;;15.60;99.90;;;;;;4232684;28;20048;-79
2023/07/31 04:22:26;;;;;;;1.52;0.77;;;15.60;99.90;;;;;;4232496;28;20035;-78
2023/07/31 04:24:26;;;;;;;1.88;0.80;;;15.60;99.90;;;;;;4232662;28;20043;-79
2023/07/31 04:26:27;;;;;;;1.02;0.60;;;15.60;99.90;;;;;;4232056;28;20157;-79
2023/07/31 04:28:28;;;;;;;1.25;0.80;;;15.60;99.90;;;;;;4232708;28;20066;-79
2023/07/31 04:30:28;;;;;;;1.95;0.68;;;15.60;99.90;;;;;;4232943;28;20399;-79
2023/07/31 04:32:29;;;;;;;2.13;0.55;;;15.80;99.90;;;;;;4232282;28;20198;-79
2023/07/31 04:34:30;;;;;;;1.55;0.52;;;15.60;99.90;;;;;;4232110;28;20134;-79
2023/07/31 04:36:31;;;;;;;1.88;0.60;;;15.60;99.90;;;;;;4232137;28;20054;-79
2023/07/31 04:38:31;;;;;;;4.97;0.80;;;15.60;99.90;;;;;;4232706;28;20476;-79
2023/07/31 04:40:32;;;;;;;1.42;0.70;;;15.70;99.90;;;;;;4232287;28;20101;-79
2023/07/31 04:42:34;;;;;;;0.75;0.52;;;15.70;99.90;;;;;;4231800;28;20444;-79
2023/07/31 04:44:35;;;;;;;2.78;0.60;;;15.70;99.90;;;;;;4232490;28;20036;-79
2023/07/31 04:46:37;;;;;;;1.42;0.60;;;15.70;99.90;;;;;;4232282;28;20044;-79
2023/07/31 04:48:37;;;;;;;1.33;0.88;;;15.70;99.90;;;;;;4232443;28;20111;-79
2023/07/31 04:50:38;;;;;;;0.85;0.50;;;15.70;99.90;;;;;;4232407;28;20040;-79
2023/07/31 04:52:39;;;;;;;0.70;0.40;;;15.70;99.90;;;;;;4231749;28;20043;-79
2023/07/31 04:54:40;;;;;;;1.70;0.60;;;15.60;99.90;;;;;;4232106;28;20053;-79
2023/07/31 04:56:41;;;;;;;1.40;0.40;;;15.70;99.90;;;;;;4231769;28;20043;-79
2023/07/31 04:58:42;;;;;;;1.92;0.73;;;15.70;99.90;;;;;;4231559;28;20035;-79
2023/07/31 05:00:43;;;;;;;2.83;0.60;;;15.60;99.90;;;;;;4231567;28;20043;-79
2023/07/31 05:02:44;;;;;;;1.95;0.50;;;15.60;99.90;;;;;;4232113;28;20484;-80
2023/07/31 05:04:45;;;;;;;2.85;0.50;;;15.40;99.90;;;;;;4231158;28;20109;-79
2023/07/31 05:06:45;;;;;;;1.83;0.40;;;15.70;99.90;;;;;;4231942;28;20043;-79
2023/07/31 05:08:46;;;;;;;1.63;0.30;;;15.60;99.90;;;;;;4230020;28;20051;-80
2023/07/31 05:10:47;;;;;;;2.28;0.50;;;15.70;99.90;;;;;;4231642;27;20039;-79
2023/07/31 05:12:47;;;;;;;1.80;0.35;;;15.70;99.90;;;;;;4231762;28;20131;-79
2023/07/31 05:14:48;;;;;;;3.03;0.60;;;15.70;99.90;;;;;;4231920;28;20491;-79
2023/07/31 05:16:49;;;;;;;1.45;0.63;;;15.60;99.90;;;;;;4231542;28;20037;-79
2023/07/31 05:18:50;;;;;;;1.25;0.55;;;15.60;99.90;;;;;;4231476;28;20589;-79
2023/07/31 05:20:51;;;;;;;0.63;0.30;;;15.70;99.90;;;;;;4231690;28;20118;-80
2023/07/31 05:22:52;;;;;;;0.88;0.40;;;15.70;99.90;;;;;;4231290;28;20105;-79
2023/07/31 05:24:54;;;;;;;2.65;0.50;;;15.60;99.90;;;;;;4231569;28;20050;-79
2023/07/31 05:26:54;;;;;;;1.05;0.50;;;15.60;99.90;;;;;;4231584;28;20048;-79
2023/07/31 05:28:55;;;;;;;1.13;0.60;;;16.40;99.90;;;;;;4231687;28;20038;-81
2023/07/31 05:31:03;;;;;;;4.18;0.47;;;15.70;99.90;;;;;;4231351;28;20118;-79
2023/07/31 05:33:04;;;;;;;0.30;0.28;;;15.70;99.90;;;;;;4231634;28;20055;-80
2023/07/31 05:35:05;;;;;;;1.48;0.40;;;15.70;99.90;;;;;;4231602;28;20494;-79
2023/07/31 05:37:06;;;;;;;1.02;0.50;;;15.70;99.90;;;;;;4230832;28;20059;-79
2023/07/31 05:39:08;;;;;;;0.82;0.30;;;15.70;99.90;;;;;;4231258;28;20036;-79
2023/07/31 05:41:09;;;;;;;0.65;0.40;;;15.70;99.90;;;;;;4231028;28;20403;-79
2023/07/31 05:43:09;;;;;;;0.52;0.40;;;15.80;99.90;;;;;;4231539;28;20043;-79
2023/07/31 05:45:10;;;;;;;0.75;0.40;;;15.80;99.90;;;;;;4231245;28;20056;-79
2023/07/31 05:47:11;;;;;;;0.20;0.20;;;15.80;99.90;;;;;;4230991;28;20590;-79
2023/07/31 05:49:12;;;;;;;0.60;0.60;;;15.80;99.90;;;;;;4231401;28;20543;-79
2023/07/31 05:51:12;;;;;;;0.30;0.15;;;15.80;99.90;;;;;;4231335;28;20043;-79
2023/07/31 05:53:13;;;;;;;1.38;0.40;;;15.80;99.90;;;;;;4231037;28;20047;-79
2023/07/31 05:55:14;;;;;;;0.17;0.17;;;15.80;99.90;;;;;;4230972;28;20040;-79
2023/07/31 05:57:14;;;;;;;0.63;0.30;;;15.80;99.90;;;;;;4231102;28;20486;-79
2023/07/31 05:59:16;;;;;;;0.73;0.22;;;15.90;99.90;;;;;;4230945;28;20051;-79
2023/07/31 06:01:17;;;;;;;0.75;0.35;;;15.90;99.90;;;;;;4230796;28;20043;-79
2023/07/31 06:03:18;;;;;;;0.50;0.20;;;15.90;99.90;;;;;;4230454;28;20057;-79
2023/07/31 06:05:18;;;;;;;0.70;0.50;;;15.90;99.90;;;;;;4230901;28;20082;-79
2023/07/31 06:07:19;;;;;;;0.63;0.28;;;15.90;99.90;;;;;;4230476;28;20476;-79
2023/07/31 06:09:20;;;;;;;0.50;0.32;;;16.00;99.90;;;;;;4230827;28;20597;-79
2023/07/31 06:11:21;;;;;;;0.73;0.50;;;16.00;99.90;;;;;;4230279;28;20581;-79
2023/07/31 06:13:22;;;;;;;0.75;0.45;;;16.00;99.90;;;;;;4230963;28;20047;-79
2023/07/31 06:15:22;;;;;;;2.08;0.60;;;16.00;99.90;;;;;;4230991;28;20124;-79
2023/07/31 06:17:23;;;;;;;2.10;0.50;;;16.00;99.90;;;;;;4230374;28;20035;-79
2023/07/31 06:19:24;;;;;;;1.40;0.60;;;16.00;99.90;;;;;;4230229;28;20108;-79
2023/07/31 06:21:24;;;;;;;1.25;0.60;;;16.00;99.90;;;;;;4230393;28;20115;-79
2023/07/31 06:23:25;;;;;;;1.85;0.70;;;16.00;99.90;;;;;;4230567;28;20484;-79
2023/07/31 06:25:26;;;;;;;1.63;0.50;;;16.10;99.90;;;;;;4230683;28;20047;-79
2023/07/31 06:27:27;;;;;;;1.23;0.82;;;16.00;99.90;;;;;;4230500;28;20414;-79
2023/07/31 06:29:27;;;;;;;2.58;0.90;;;16.10;99.90;;;;;;4230219;28;20043;-79
2023/07/31 06:31:28;;;;;;;2.03;0.80;;;16.10;99.90;;;;;;4212131;28;20044;-79
2023/07/31 06:33:29;;;;;;;3.72;1.00;;;16.10;99.90;;;;;;4230657;28;20047;-79
2023/07/31 06:35:29;;;;;;;1.58;1.00;;;16.10;99.90;;;;;;4230432;28;20040;-79
2023/07/31 06:37:30;;;;;;;2.60;1.13;;;16.30;99.90;;;;;;4229254;28;20479;-79
2023/07/31 06:39:31;;;;;;;2.58;0.98;;;16.20;99.90;;;;;;4230494;28;20108;-79
2023/07/31 06:41:31;;;;;;;4.80;1.80;;;16.20;99.90;;;;;;4229749;28;20046;-80
2023/07/31 06:43:32;;;;;;;8.15;2.03;;;16.20;99.90;;;;;;4230471;28;20052;-79
2023/07/31 06:45:34;;;;;;;6.50;2.13;;;16.30;99.90;;;;;;4230562;28;20043;-79
2023/07/31 06:47:36;;;;;;;8.00;2.20;;;16.30;99.90;;;;;;4230082;28;20048;-79
2023/07/31 06:49:36;;;;;;;10.02;2.22;;;16.30;99.90;;;;;;4228599;28;20054;-79
2023/07/31 06:51:38;;;;;;;5.20;3.03;;;16.30;99.90;;;;;;4229040;28;20498;-79
2023/07/31 06:53:39;;;;;;;10.73;2.40;;;16.40;99.90;;;;;;4230767;28;20442;-79
2023/07/31 06:55:39;;;;;;;8.98;2.40;;;16.40;99.90;;;;;;4230862;28;20118;-79
2023/07/31 06:57:40;;;;;;;12.13;2.90;;;16.50;99.90;;;;;;4230548;28;20040;-79
2023/07/31 06:59:41;;;;;;;14.25;3.20;;;16.60;99.90;;;;;;4230901;28;20054;-80
2023/07/31 07:01:41;;;;;;;13.32;3.22;;;16.60;99.90;;;;;;4230453;28;20096;-79
2023/07/31 07:03:42;;;;;;;19.48;3.85;;;16.70;99.90;;;;;;4229885;28;20051;-79
2023/07/31 07:05:43;;;;;;;18.20;3.35;;;16.80;99.90;;;;;;4229235;28;20148;-79
2023/07/31 07:07:43;;;;;;;16.00;3.80;;;16.80;99.90;;;;;;4230222;28;20089;-79
2023/07/31 07:09:44;;;;;;;18.05;4.60;;;16.80;99.90;;;;;;4230410;28;20040;-79
2023/07/31 07:11:45;;;;;;;21.95;5.00;;;16.90;99.90;;;;;;4230325;28;20039;-79
2023/07/31 07:13:45;;;;;;;12.02;3.30;;;17.00;99.90;;;;;;4229799;28;20118;-79
2023/07/31 07:15:49;;;;;;;9.95;3.33;;;17.00;99.90;;;;;;4230610;28;20246;-79
2023/07/31 07:17:50;;;;;;;16.05;3.30;;;17.10;99.90;;;;;;4230338;28;20036;-80
2023/07/31 07:19:51;;;;;;;15.95;3.53;;;17.10;99.90;;;;;;4230552;28;20075;-79
2023/07/31 07:21:51;;;;;;;20.08;3.80;;;17.10;99.90;;;;;;4230263;28;20075;-79
2023/07/31 07:23:52;;;;;;;17.20;4.07;;;17.10;99.90;;;;;;4229871;28;20123;-79
2023/07/31 07:25:53;;;;;;;16.50;4.03;;;17.10;99.90;;;;;;4230128;28;20053;-79
2023/07/31 07:27:53;;;;;;;13.43;3.47;;;17.10;99.90;;;;;;4230363;27;20043;-79
2023/07/31 07:29:54;;;;;;;16.50;4.18;;;17.20;99.90;;;;;;4233412;28;20115;-79
2023/07/31 07:31:55;;;;;;;9.88;3.28;;;17.20;99.90;;;;;;4231507;28;20039;-79
2023/07/31 07:33:57;;;;;;;13.07;3.10;;;17.20;99.90;;;;;;4233434;28;20043;-79
2023/07/31 07:36:01;;;;;;;14.57;3.00;;;17.20;99.90;;;;;;4233237;28;20405;-79
2023/07/31 07:38:03;;;;;;;11.73;3.47;;;17.20;99.90;;;;;;4233288;28;20047;-79
2023/07/31 07:40:05;;;;;;;13.93;3.13;;;17.10;99.90;;;;;;4231501;28;20546;-79
2023/07/31 07:42:06;;;;;;;18.58;3.92;;;17.20;99.90;;;;;;4231329;28;20039;-79
2023/07/31 07:44:08;;;;;;;13.98;3.80;;;17.10;99.90;;;;;;4233547;28;20506;-79
2023/07/31 07:46:08;;;;;;;14.45;2.97;;;17.10;99.90;;;;;;4233106;28;20083;-79
2023/07/31 07:48:09;;;;;;;11.57;3.33;;;17.10;99.90;;;;;;4233583;28;20044;-79
2023/07/31 07:50:10;;;;;;;10.48;2.53;;;17.10;99.90;;;;;;4233659;28;20055;-79
2023/07/31 07:52:11;;;;;;;11.70;2.95;;;17.10;99.90;;;;;;4233468;28;20201;-79
2023/07/31 07:54:12;;;;;;;11.98;3.72;;;17.10;99.90;;;;;;4233026;28;20057;-79
2023/07/31 07:56:12;;;;;;;13.65;3.22;;;17.10;99.90;;;;;;4232296;28;20433;-79
2023/07/31 07:58:13;;;;;;;8.27;2.92;;;17.10;99.90;;;;;;4233340;28;20134;-79
2023/07/31 08:00:14;;;;;;;12.30;3.17;;;17.10;99.90;;;;;;4232140;28;20416;-79
2023/07/31 08:02:14;;;;;;;11.25;2.80;;;17.10;99.90;;;;;;4232793;28;20043;-79
2023/07/31 08:04:15;;;;;;;11.95;3.38;;;17.10;99.90;;;;;;4232492;28;20134;-79
2023/07/31 08:06:17;;;;;;;3.75;1.60;;;17.10;99.90;;;;;;4232169;28;20035;-79
2023/07/31 08:08:19;;;;;;;5.97;1.33;;;17.10;99.90;;;;;;4233150;28;20052;-80
2023/07/31 08:10:20;;;;;;;1.52;0.82;;;17.10;99.90;;;;;;4233031;28;20136;-79
2023/07/31 08:12:20;;;;;;;2.85;0.90;;;17.10;99.90;;;;;;4232563;28;20145;-79
2023/07/31 08:14:21;;;;;;;1.60;0.70;;;17.10;99.90;;;;;;4232924;28;20090;-79
2023/07/31 08:16:22;;;;;;;1.00;0.60;;;17.10;99.90;;;;;;4230672;28;20043;-79
2023/07/31 08:18:22;;;;;;;0.90;0.50;;;17.10;99.90;;;;;;4232635;28;20043;-79
2023/07/31 08:20:23;;;;;;;2.38;0.95;;;17.10;99.90;;;;;;4232758;28;20063;-79
2023/07/31 08:22:24;;;;;;;3.38;0.60;;;17.20;99.90;;;;;;4232492;28;20096;-79
2023/07/31 08:24:25;;;;;;;3.35;1.27;;;17.30;99.90;;;;;;4232502;28;20046;-79
2023/07/31 08:26:26;;;;;;;1.50;0.77;;;17.40;99.90;;;;;;4232621;28;20044;-79
2023/07/31 08:28:27;;;;;;;2.50;0.65;;;17.40;99.90;;;;;;4232945;27;20100;-79
2023/07/31 08:30:27;;;;;;;1.42;0.70;;;17.60;99.90;;;;;;4232061;28;20122;-79
2023/07/31 08:32:28;;;;;;;1.92;0.65;;;17.70;99.90;;;;;;4232143;28;20514;-79
2023/07/31 08:34:29;;;;;;;1.40;0.50;;;17.70;99.90;;;;;;4232663;28;20043;-79
2023/07/31 08:36:30;;;;;;;0.95;0.60;;;17.70;99.90;;;;;;4232055;28;20050;-79
2023/07/31 08:38:31;;;;;;;1.40;0.60;;;17.70;99.90;;;;;;4232490;28;20054;-80
2023/07/31 08:40:31;;;;;;;2.30;0.63;;;17.70;99.90;;;;;;4230612;28;20046;-79
2023/07/31 08:42:32;;;;;;;0.80;0.50;;;17.80;99.90;;;;;;4232005;28;20484;-79
2023/07/31 08:44:34;;;;;;;2.35;0.70;;;17.80;99.90;;;;;;4232330;28;20039;-79
2023/07/31 08:46:36;;;;;;;1.10;0.60;;;17.80;99.90;;;;;;4231851;28;20051;-79
2023/07/31 08:48:38;;;;;;;0.57;0.50;;;17.90;99.90;;;;;;4232272;28;20043;-79
2023/07/31 08:50:38;;;;;;;2.40;0.60;;;17.90;99.90;;;;;;4232351;28;20055;-79
2023/07/31 08:52:40;;;;;;;0.95;0.63;;;17.90;99.90;;;;;;4230667;28;20039;-79
2023/07/31 08:54:41;;;;;;;0.95;0.47;;;18.00;99.90;;;;;;4231920;28;20036;-80
2023/07/31 08:56:42;;;;;;;1.00;0.68;;;17.90;99.90;;;;;;4230617;28;20043;-79
2023/07/31 08:58:46;;;;;;;1.40;0.60;;;17.90;99.90;;;;;;4230766;28;20051;-79
2023/07/31 09:00:47;;;;;;;0.82;0.50;;;17.90;99.90;;;;;;4232041;28;20488;-79
2023/07/31 09:02:56;;;;;;;0.95;0.50;;;18.00;99.90;;;;;;4231484;28;20051;-79
2023/07/31 09:04:57;;;;;;;2.58;1.13;;;17.80;99.90;;;;;;4231852;28;20149;-79
2023/07/31 09:07:04;;;;;;;0.52;0.40;;;17.80;99.90;;;;;;4231694;28;20050;-79
2023/07/31 09:09:04;;;;;;;2.58;0.40;;;17.80;99.90;;;;;;4231345;28;20082;-79
2023/07/31 09:11:05;;;;;;;0.77;0.40;;;17.80;99.90;;;;;;4231522;28;20043;-79
2023/07/31 09:13:06;;;;;;;0.98;0.60;;;17.90;99.90;;;;;;4231801;28;20050;-79
2023/07/31 09:15:08;;;;;;;0.80;0.40;;;17.90;99.90;;;;;;4231645;28;20043;-79
2023/07/31 09:17:09;;;;;;;1.80;0.60;;;17.90;99.90;;;;;;4231528;28;20098;-79
2023/07/31 09:19:09;;;;;;;2.50;0.43;;;18.00;99.90;;;;;;4231938;28;20048;-79
2023/07/31 09:21:10;;;;;;;0.68;0.40;;;18.00;99.90;;;;;;4231324;28;20040;-79
2023/07/31 09:23:13;;;;;;;0.40;0.30;;;18.00;99.90;;;;;;4231612;28;20054;-79
2023/07/31 09:25:27;;;;;;;0.55;0.40;;;18.00;99.90;;;;;;4231901;28;20053;-79
2023/07/31 09:27:28;;;;;;;0.35;0.30;;;17.20;99.90;;;;;;4229890;28;20032;-79
2023/07/31 09:29:29;;;;;;;3.28;0.47;;;18.10;99.90;;;;;;4230467;28;20058;-79
2023/07/31 09:31:40;;;;;;;1.65;0.40;;;18.10;99.90;;;;;;4231167;28;20082;-79
2023/07/31 09:33:56;;;;;;;0.52;0.35;;;18.00;99.90;;;;;;4231897;28;20123;-79
2023/07/31 09:35:58;;;;;;;0.52;0.38;;;18.00;99.90;;;;;;4231202;28;20043;-79
2023/07/31 09:38:03;;;;;;;1.00;0.30;;;18.00;99.90;;;;;;4231160;28;20118;-79
2023/07/31 09:40:04;;;;;;;1.20;0.38;;;18.00;99.90;;;;;;4231129;28;20035;-79
2023/07/31 09:42:05;;;;;;;0.80;0.57;;;18.00;99.90;;;;;;4231230;28;20035;-79
2023/07/31 09:44:06;;;;;;;0.40;0.30;;;18.00;99.90;;;;;;4230940;28;20040;-79
2023/07/31 09:46:13;;;;;;;0.63;0.32;;;18.00;99.90;;;;;;4230609;28;20479;-79
2023/07/31 09:48:18;;;;;;;0.40;0.40;;;18.00;99.90;;;;;;4231461;28;20144;-79
2023/07/31 09:50:21;;;;;;;1.00;0.40;;;18.20;99.90;;;;;;4231519;28;20503;-79
2023/07/31 09:52:22;;;;;;;0.20;0.20;;;18.30;99.90;;;;;;4230798;28;20043;-79
2023/07/31 09:54:23;;;;;;;0.80;0.38;;;18.40;99.90;;;;;;4230740;28;20067;-79
2023/07/31 09:56:23;;;;;;;0.45;0.30;;;18.40;99.90;;;;;;4230596;28;20220;-79
2023/07/31 09:58:28;;;;;;;0.40;0.32;;;18.50;99.90;;;;;;4231162;28;20122;-79
2023/07/31 10:00:30;;;;;;;0.30;0.20;;;18.50;99.90;;;;;;4231046;28;20085;-79
2023/07/31 10:02:32;;;;;;;0.40;0.30;;;18.50;99.90;;;;;;4230615;28;20044;-79
2023/07/31 10:04:33;;;;;;;0.22;0.22;;;18.50;99.90;;;;;;4230760;28;20117;-79
2023/07/31 10:06:35;;;;;;;0.40;0.20;;;18.50;99.90;;;;;;4230604;28;20509;-79
2023/07/31 10:08:37;;;;;;;1.45;0.20;;;18.50;99.90;;;;;;4231265;28;20432;-79
2023/07/31 10:10:41;;;;;;;0.17;0.17;;;18.50;99.90;;;;;;4229992;28;20036;-79
2023/07/31 10:12:43;;;;;;;1.08;0.10;;;18.50;99.90;;;;;;4229109;28;20059;-79
2023/07/31 10:14:44;;;;;;;0.10;0.08;;;18.50;99.90;;;;;;4212526;28;20040;-79
2023/07/31 10:16:46;;;;;;;0.20;0.10;;;18.60;99.90;;;;;;4230741;28;20537;-79
2023/07/31 10:18:47;;;;;;;0.40;0.10;;;18.60;99.90;;;;;;4230656;28;20136;-79
2023/07/31 10:20:48;;;;;;;0.20;0.10;;;18.60;99.90;;;;;;4231036;28;20039;-79
2023/07/31 10:22:50;;;;;;;0.30;0.20;;;18.70;99.90;;;;;;4230621;28;20470;-79
2023/07/31 10:24:54;;;;;;;0.00;0.00;;;18.60;99.90;;;;;;4230051;28;20134;-79
2023/07/31 10:26:59;;;;;;;1.20;0.10;;;18.60;99.90;;;;;;4230630;28;20051;-79
2023/07/31 10:29:01;;;;;;;0.20;0.10;;;18.60;99.90;;;;;;4230675;28;20130;-79
2023/07/31 10:31:03;;;;;;;0.10;0.08;;;18.50;99.90;;;;;;4230632;28;20449;-79